• Join FlightAware (Why Join?)
  • Login
  • US Flag 
07:41AM EDT


 

Airport Tracker/Info


-or-


 

Live Flight TrackerFlight Track Log ✈ PDT4226 ✈ 21-Oct-2013 ✈ KPHL - KBGM

Flight Track Log - Related Links

Times and Time Zones

All times are in EDT time to prevent confusion due to time zone crossing. See the PDT4226 flight status page for this flight to view local times or setup timezone preferences in your user account.

Time Position Orientation Groundspeed Altitude Reporting Facility
EDT Latitude Longitude Course Direction KTS MPH feet Rate Location/Type
12:16PM 39.9000 -75.2333 293° West 117 135 700  Level Philadelphia TRACON
12:17PM 39.9167 -75.2833 294° West 167 192 2,300 1,320 Climbing Philadelphia TRACON
12:18PM 39.9333 -75.3333 294° West 180 207 3,400 1,320 Climbing Philadelphia TRACON
12:19PM 40.0700 -75.3014 323° Northwest  Level Estimated
12:19PM 39.9667 -75.3833 311° West 180 207 4,900  Level Philadelphia TRACON
12:20PM 40.1359 -75.3216 311° West  Level Estimated
12:20PM 39.9667 -75.4333 270° West 150 173 6,600  Level Philadelphia TRACON
12:21PM 40.2018 -75.3419 311° West  Level Estimated
12:21PM 39.9667 -75.5000 270° West 156 180 8,600  Level Philadelphia TRACON
12:22PM 40.2281 -75.4236 293° West  Level FlightAware Approximate
12:22PM 40.0050 -75.5297 329° Northwest 170 196 9,900  Level New York Center
12:23PM 40.0464 -75.5406 349° North 181 208 10,900 1,020 Climbing New York Center
12:24PM 40.1108 -75.5450 357° North 198 228 12,000 540 Climbing New York Center
12:25PM 40.1642 -75.5594 348° North 215 247 12,000  Level New York Center
12:26PM 40.2475 -75.5653 357° North 249 287 12,000  Level New York Center
12:27PM 40.3244 -75.5706 357° North 266 306 12,000  Level New York Center
12:28PM 40.3897 -75.6050 338° Northwest 261 300 12,000  Level New York Center
12:29PM 40.4442 -75.6469 330° Northwest 255 293 12,000  Level New York Center
12:30PM 40.5072 -75.6844 336° Northwest 250 288 12,000  Level New York Center
12:31PM 40.5697 -75.7381 327° Northwest 245 282 12,000  Level New York Center
12:32PM 40.6283 -75.7806 331° Northwest 240 276 12,000  Level New York Center
12:33PM 40.6892 -75.8178 335° Northwest 245 282 12,000  Level New York Center
12:34PM 40.7536 -75.8225 357° North 245 282 12,000  Level New York Center
12:35PM 40.8261 -75.8333 354° North 250 288 12,000  Level New York Center
12:36PM 40.9003 -75.8500 350° North 255 293 12,000  Level New York Center
12:37PM 40.9728 -75.8581 355° North 255 293 12,000 -60 Level New York Center
12:38PM 41.0417 -75.8606 358° North 255 293 11,900 -60 Descending New York Center
12:39PM 41.1142 -75.8686 355° North 255 293 11,900  Level New York Center
12:40PM 41.1764 -75.8761 355° North 255 293 11,900  Level New York Center
12:41PM 41.2489 -75.8817 357° North 255 293 11,900  Level New York Center
12:42PM 41.3256 -75.8903 355° North 255 293 11,900  Level New York Center
12:43PM 41.3983 -75.8986 355° North 255 293 11,900 -120 Level New York Center
12:44PM 41.4689 -75.9011 358° North 255 293 11,700 -600 Descending New York Center
12:45PM 41.5433 -75.9125 353° North 255 293 10,800 -900 Descending New York Center
12:46PM 41.6097 -75.9231 353° North 265 305 9,900 -960 Descending New York Center
12:47PM 41.6944 -75.9350 354° North 270 311 8,900 -540 Descending New York Center
12:48PM 41.7672 -75.9408 357° North 270 311 8,900 -240 Level New York Center
12:49PM 41.8397 -75.9492 355° North 264 304 8,500 -660 Descending New York Center
12:50PM 41.8989 -75.9286 14° North 248 285 7,600 -900 Descending New York Center
12:51PM 41.9592 -75.8775 32° Northeast 242 278 6,800 -960 Descending New York Center
12:52PM 42.0375 -75.8528 13° North 254 292 5,700 -900 Descending New York Center
12:53PM 42.1081 -75.8583 357° North 254 292 5,100 -960 Descending New York Center
12:54PM 42.1644 -75.8992 332° Northwest 238 274 3,800 -960 Descending New York Center
12:55PM 42.2106 -75.9392 327° Northwest 216 249 3,200 -600 Descending New York Center
12:56PM 42.2467 -75.9700 328° Northwest 184 212 2,700 -540 Descending New York Center
12:57PM 42.2392 -76.0000 251° West 127 146 2,200 1,140 Descending New York Center
12:58PM 42.2706 -76.0419 315° West 127 146 5,000 2,760 Climbing New York Center